Time;durP1;ratioP1;P1;durP2;ratioP2;P2;SDS_P1;SDS_P2;PMS_P1;PMS_P2;Temp;Humidity;BMP_temperature;BMP_pressure;BME280_temperature;BME280_humidity;BME280_pressure;Samples;Min_cycle;Max_cycle;Signal;HPM_P1;HPM_P2
2022/09/19 00:01:12;;;;;;;20.33;4.68;;;;;;;;;;5059285;28;20117;-75
2022/09/19 00:03:39;;;;;;;19.92;5.47;;;;;;;;;;5057578;28;20433;-75
2022/09/19 00:06:06;;;;;;;21.73;5.03;;;;;;;;;;5070396;28;20482;-75
2022/09/19 00:08:32;;;;;;;16.17;3.33;;;;;;;;;;5071030;28;20032;-75
2022/09/19 00:11:00;;;;;;;20.70;3.50;;;;;;;;;;5071806;28;20029;-75
2022/09/19 00:13:27;;;;;;;17.75;3.70;;;;;;;;;;5072304;28;20861;-75
2022/09/19 00:15:53;;;;;;;17.75;3.30;;;;;;;;;;5072306;28;20070;-75
2022/09/19 00:18:20;;;;;;;18.42;3.10;;;;;;;;;;5072004;28;20112;-75
2022/09/19 00:20:49;;;;;;;25.60;5.72;;;;;;;;;;5072049;28;20039;-75
2022/09/19 00:26:20;;;;;;;19.23;4.18;;;;;;;;;;5072580;28;20098;-75
2022/09/19 00:28:48;;;;;;;21.88;4.13;;;;;;;;;;5071506;28;20132;-74
2022/09/19 00:31:17;;;;;;;25.00;4.55;;;;;;;;;;5072561;28;20028;-75
2022/09/19 00:33:44;;;;;;;18.52;3.35;;;;;;;;;;5071914;28;20166;-75
2022/09/19 00:36:11;;;;;;;22.27;3.60;;;;;;;;;;5071176;28;20039;-75
2022/09/19 00:38:37;;;;;;;14.55;3.55;;;;;;;;;;5071647;28;20471;-75
2022/09/19 00:41:03;;;;;;;16.77;3.35;;;;;;;;;;5071624;28;20540;-75
2022/09/19 00:43:48;;;;;;;19.05;3.75;;;;;;;;;;5069883;28;20471;-74
2022/09/19 00:46:14;;;;;;;22.73;3.40;;;;;;;;;;5071507;28;20031;-74
2022/09/19 00:48:42;;;;;;;25.33;5.50;;;;;;;;;;5071250;28;20020;-75
2022/09/19 00:51:12;;;;;;;14.35;3.10;;;;;;;;;;5070957;28;20047;-74
2022/09/19 00:53:40;;;;;;;17.95;4.85;;;;;;;;;;5071087;28;20383;-74
2022/09/19 00:56:06;;;;;;;17.83;4.07;;;;;;;;;;5071132;28;20047;-74
2022/09/19 00:58:37;;;;;;;25.20;3.38;;;;;;;;;;5069438;28;20036;-75
2022/09/19 01:01:03;;;;;;;20.48;4.00;;;;;;;;;;5070954;28;20056;-74
2022/09/19 01:03:30;;;;;;;17.60;3.83;;;;;;;;;;5071071;28;20387;-74
2022/09/19 01:06:15;;;;;;;28.77;5.05;;;;;;;;;;5071370;28;20518;-74
2022/09/19 01:08:51;;;;;;;30.15;5.22;;;;;;;;;;5071114;28;20436;-75
2022/09/19 01:11:46;;;;;;;21.00;4.38;;;;;;;;;;5070701;28;20496;-75
2022/09/19 01:14:26;;;;;;;17.98;4.05;;;;;;;;;;5069296;28;20068;-75
2022/09/19 01:16:54;;;;;;;18.20;4.82;;;;;;;;;;5070646;28;20036;-75
2022/09/19 01:19:20;;;;;;;20.25;5.40;;;;;;;;;;5070612;28;20051;-74
2022/09/19 01:22:00;;;;;;;22.10;4.43;;;;;;;;;;5070807;28;20578;-74
2022/09/19 01:24:34;;;;;;;27.40;6.53;;;;;;;;;;5068980;28;20554;-74
2022/09/19 01:27:12;;;;;;;17.80;4.60;;;;;;;;;;5070548;28;20547;-74
2022/09/19 01:29:45;;;;;;;32.60;9.02;;;;;;;;;;5071055;28;20095;-74
2022/09/19 01:32:14;;;;;;;32.15;7.15;;;;;;;;;;5070497;28;20021;-74
2022/09/19 01:34:44;;;;;;;28.67;8.52;;;;;;;;;;5070213;28;20062;-74
2022/09/19 01:37:12;;;;;;;;;;;;;;;;;;5071169;28;20024;-75
2022/09/19 01:39:40;;;;;;;32.35;9.77;;;;;;;;;;5070640;28;19912;-74
2022/09/19 01:42:06;;;;;;;29.67;7.88;;;;;;;;;;5070520;28;20062;-74
2022/09/19 01:44:33;;;;;;;25.17;6.68;;;;;;;;;;5070302;28;20032;-74
2022/09/19 01:47:04;;;;;;;19.85;6.15;;;;;;;;;;5072056;28;20040;-74
2022/09/19 01:49:50;;;;;;;33.30;9.45;;;;;;;;;;5071755;28;20159;-74
2022/09/19 01:52:36;;;;;;;24.95;7.22;;;;;;;;;;5060454;28;20035;-74
2022/09/19 01:55:02;;;;;;;19.35;6.00;;;;;;;;;;5070157;28;20036;-74
2022/09/19 01:57:29;;;;;;;29.60;9.35;;;;;;;;;;5070503;28;20032;-75
2022/09/19 02:00:05;;;;;;;30.40;6.28;;;;;;;;;;5067152;28;20020;-74
2022/09/19 02:02:43;;;;;;;14.93;5.78;;;;;;;;;;5050251;28;20491;-75
2022/09/19 02:05:09;;;;;;;22.48;4.80;;;;;;;;;;5054255;28;20033;-74
2022/09/19 02:07:55;;;;;;;24.42;4.63;;;;;;;;;;5065695;28;20016;-74
2022/09/19 02:10:24;;;;;;;19.27;3.47;;;;;;;;;;5067983;28;20853;-74
2022/09/19 02:12:52;;;;;;;21.63;4.03;;;;;;;;;;5069608;28;20398;-74
2022/09/19 02:15:21;;;;;;;23.23;4.03;;;;;;;;;;5069591;28;20024;-74
2022/09/19 02:17:53;;;;;;;21.75;4.00;;;;;;;;;;5069719;28;20075;-74
2022/09/19 02:20:23;;;;;;;24.63;5.57;;;;;;;;;;5069901;28;20020;-74
2022/09/19 02:22:50;;;;;;;19.63;4.93;;;;;;;;;;5069626;28;20044;-74
2022/09/19 02:25:20;;;;;;;19.13;3.58;;;;;;;;;;5069759;28;20512;-74
2022/09/19 02:27:50;;;;;;;13.83;3.33;;;;;;;;;;5068879;28;20063;-74
2022/09/19 02:30:19;;;;;;;23.70;3.10;;;;;;;;;;5069756;28;20592;-74
2022/09/19 02:32:49;;;;;;;13.77;3.57;;;;;;;;;;5069205;28;20029;-74
2022/09/19 02:35:38;;;;;;;12.57;3.08;;;;;;;;;;5068939;28;20027;-74
2022/09/19 02:38:14;;;;;;;14.38;3.03;;;;;;;;;;5064101;28;20068;-74
2022/09/19 02:40:59;;;;;;;25.77;3.78;;;;;;;;;;5068157;28;20476;-74
2022/09/19 02:43:29;;;;;;;25.88;3.58;;;;;;;;;;5068748;28;20029;-74
2022/09/19 02:46:08;;;;;;;16.88;3.55;;;;;;;;;;5069436;28;20060;-75
2022/09/19 02:48:46;;;;;;;18.73;3.05;;;;;;;;;;5065041;28;20025;-75
2022/09/19 02:51:30;;;;;;;13.90;2.70;;;;;;;;;;5069053;28;20081;-75
2022/09/19 02:54:03;;;;;;;16.10;2.42;;;;;;;;;;5069303;28;20433;-75
2022/09/19 02:56:34;;;;;;;21.02;3.83;;;;;;;;;;5068370;28;20024;-75
2022/09/19 02:59:09;;;;;;;13.68;2.72;;;;;;;;;;5065442;28;20028;-74
2022/09/19 03:01:38;;;;;;;13.88;2.60;;;;;;;;;;5068870;28;20052;-75
2022/09/19 03:04:12;;;;;;;13.52;1.98;;;;;;;;;;5068419;28;20048;-75
2022/09/19 03:06:58;;;;;;;13.95;2.78;;;;;;;;;;5069425;28;20027;-75
2022/09/19 03:09:27;;;;;;;12.35;3.08;;;;;;;;;;5067646;28;20032;-75
2022/09/19 03:12:02;;;;;;;16.95;2.95;;;;;;;;;;5058926;28;20152;-75
2022/09/19 03:14:30;;;;;;;12.65;2.17;;;;;;;;;;5068433;28;20025;-75
2022/09/19 03:16:58;;;;;;;24.65;4.45;;;;;;;;;;5068639;28;20112;-75
2022/09/19 03:19:26;;;;;;;15.50;3.78;;;;;;;;;;5066936;28;20510;-75
2022/09/19 03:21:55;;;;;;;16.13;2.50;;;;;;;;;;5068702;28;20545;-76
2022/09/19 03:24:22;;;;;;;13.48;2.63;;;;;;;;;;5068310;28;20060;-75
2022/09/19 03:26:48;;;;;;;12.27;2.60;;;;;;;;;;5068374;28;20025;-75
2022/09/19 03:29:16;;;;;;;19.52;2.85;;;;;;;;;;5068180;28;20033;-75
2022/09/19 03:31:45;;;;;;;17.73;3.10;;;;;;;;;;5068398;28;20025;-75
2022/09/19 03:34:12;;;;;;;15.40;2.42;;;;;;;;;;5067625;28;20017;-75
2022/09/19 03:36:40;;;;;;;14.52;2.22;;;;;;;;;;5068694;28;20027;-75
2022/09/19 03:39:06;;;;;;;18.40;2.75;;;;;;;;;;5067718;28;20068;-74
2022/09/19 03:41:32;;;;;;;12.40;2.70;;;;;;;;;;5067823;28;20025;-74
2022/09/19 03:44:01;;;;;;;14.25;2.55;;;;;;;;;;5068223;28;20037;-74
2022/09/19 03:46:30;;;;;;;18.98;2.47;;;;;;;;;;5066459;28;20028;-74
2022/09/19 03:48:56;;;;;;;19.20;3.22;;;;;;;;;;5055476;28;20062;-74
2022/09/19 03:51:24;;;;;;;22.75;3.25;;;;;;;;;;5067956;28;20024;-75
2022/09/19 03:53:50;;;;;;;17.77;2.03;;;;;;;;;;5068476;28;20379;-75
2022/09/19 03:56:16;;;;;;;15.13;2.33;;;;;;;;;;5067959;28;20028;-75
2022/09/19 03:58:43;;;;;;;19.05;2.85;;;;;;;;;;5068143;28;20173;-75
2022/09/19 04:01:10;;;;;;;16.35;2.95;;;;;;;;;;5057665;28;20609;-75
2022/09/19 04:03:37;;;;;;;18.30;2.35;;;;;;;;;;5048558;28;20475;-75
2022/09/19 04:06:04;;;;;;;16.38;3.58;;;;;;;;;;5066498;28;20029;-74
2022/09/19 04:08:31;;;;;;;17.90;2.30;;;;;;;;;;5067898;28;20025;-75
2022/09/19 04:10:59;;;;;;;13.43;2.05;;;;;;;;;;5066400;28;20036;-75
2022/09/19 04:13:25;;;;;;;16.30;2.95;;;;;;;;;;5066126;28;20036;-75
2022/09/19 04:15:52;;;;;;;13.77;2.47;;;;;;;;;;5067975;28;20028;-76
2022/09/19 04:18:18;;;;;;;12.48;2.35;;;;;;;;;;5067935;28;20035;-75
2022/09/19 04:20:45;;;;;;;15.98;2.72;;;;;;;;;;5067948;28;20127;-75
2022/09/19 04:23:13;;;;;;;14.05;3.08;;;;;;;;;;5068004;28;20548;-75
2022/09/19 04:25:40;;;;;;;14.75;2.53;;;;;;;;;;5067688;28;20086;-75
2022/09/19 04:28:08;;;;;;;13.55;2.70;;;;;;;;;;5068026;28;20036;-75
2022/09/19 04:30:35;;;;;;;20.48;2.97;;;;;;;;;;5067591;28;20439;-75
2022/09/19 04:33:02;;;;;;;23.45;3.17;;;;;;;;;;5067991;28;20027;-75
2022/09/19 04:35:29;;;;;;;12.13;3.08;;;;;;;;;;5067314;28;20560;-75
2022/09/19 04:37:55;;;;;;;13.68;2.30;;;;;;;;;;5067380;28;20029;-75
2022/09/19 04:40:21;;;;;;;18.17;3.47;;;;;;;;;;5058507;28;20372;-75
2022/09/19 04:42:48;;;;;;;16.17;2.88;;;;;;;;;;5057178;28;20040;-75
2022/09/19 04:45:20;;;;;;;13.90;2.75;;;;;;;;;;5058164;28;20041;-75
2022/09/19 04:47:47;;;;;;;14.48;2.53;;;;;;;;;;5061840;28;20021;-75
2022/09/19 04:50:13;;;;;;;19.08;3.17;;;;;;;;;;5048543;28;20029;-75
2022/09/19 04:52:39;;;;;;;15.02;2.53;;;;;;;;;;5070730;28;20110;-74
2022/09/19 04:55:06;;;;;;;13.57;2.47;;;;;;;;;;5070729;28;20047;-75
2022/09/19 04:57:32;;;;;;;20.58;2.65;;;;;;;;;;5071324;28;20029;-75
2022/09/19 04:59:58;;;;;;;18.95;2.42;;;;;;;;;;5065082;28;20064;-74
2022/09/19 05:02:30;;;;;;;10.43;2.00;;;;;;;;;;5064128;28;20041;-75
2022/09/19 05:04:56;;;;;;;10.95;2.50;;;;;;;;;;5063074;28;20029;-75
2022/09/19 05:07:28;;;;;;;12.35;2.47;;;;;;;;;;5064288;28;20054;-75
2022/09/19 05:09:54;;;;;;;16.23;2.90;;;;;;;;;;5070880;28;20134;-75
2022/09/19 05:12:20;;;;;;;11.68;2.08;;;;;;;;;;5065664;28;20115;-75
2022/09/19 05:14:46;;;;;;;18.40;2.88;;;;;;;;;;5068018;28;20052;-75
2022/09/19 05:17:12;;;;;;;12.38;2.63;;;;;;;;;;5070731;28;20035;-75
2022/09/19 05:19:39;;;;;;;15.13;2.50;;;;;;;;;;5071408;28;20059;-75
2022/09/19 05:22:05;;;;;;;12.65;2.22;;;;;;;;;;5067234;28;20084;-75
2022/09/19 05:24:31;;;;;;;12.80;3.20;;;;;;;;;;5063480;28;20071;-75
2022/09/19 05:26:58;;;;;;;13.38;3.50;;;;;;;;;;5062792;28;20056;-75
2022/09/19 05:29:25;;;;;;;15.10;2.33;;;;;;;;;;5061429;28;20378;-75
2022/09/19 05:31:54;;;;;;;15.38;2.72;;;;;;;;;;5053407;28;20025;-75
2022/09/19 05:34:20;;;;;;;21.65;2.65;;;;;;;;;;5062422;28;20063;-75
2022/09/19 05:36:47;;;;;;;6.80;1.75;;;;;;;;;;5065096;28;20059;-75
2022/09/19 05:39:14;;;;;;;14.40;2.45;;;;;;;;;;5070142;28;20016;-74
2022/09/19 05:41:40;;;;;;;12.50;2.75;;;;;;;;;;5069740;28;20033;-75
2022/09/19 05:44:07;;;;;;;6.78;1.30;;;;;;;;;;5066810;28;20609;-75
2022/09/19 05:46:33;;;;;;;13.52;2.03;;;;;;;;;;5067056;28;20504;-76
2022/09/19 05:48:59;;;;;;;13.20;2.47;;;;;;;;;;5069743;28;20032;-74
2022/09/19 05:51:25;;;;;;;14.18;2.90;;;;;;;;;;5069818;28;20029;-74
2022/09/19 05:53:56;;;;;;;17.33;2.97;;;;;;;;;;5067335;28;20048;-74
2022/09/19 05:56:22;;;;;;;17.27;2.30;;;;;;;;;;5067262;28;20020;-74
2022/09/19 05:58:49;;;;;;;12.48;1.98;;;;;;;;;;5062581;28;20020;-74
2022/09/19 06:01:15;;;;;;;15.27;2.42;;;;;;;;;;5068893;28;20051;-75
2022/09/19 06:03:42;;;;;;;9.13;2.17;;;;;;;;;;5067701;28;20017;-75
2022/09/19 06:06:13;;;;;;;14.18;2.58;;;;;;;;;;5066973;28;20107;-75
2022/09/19 06:08:40;;;;;;;13.40;2.20;;;;;;;;;;5067780;28;20013;-76
2022/09/19 06:11:06;;;;;;;18.40;3.05;;;;;;;;;;5068383;28;20501;-75
2022/09/19 06:16:20;;;;;;;18.55;3.33;;;;;;;;;;5052354;28;20046;-77
2022/09/19 06:18:47;;;;;;;14.02;2.78;;;;;;;;;;5056605;28;20036;-76
2022/09/19 06:21:13;;;;;;;16.17;2.97;;;;;;;;;;5057476;28;20053;-76
2022/09/19 06:23:41;;;;;;;15.13;3.53;;;;;;;;;;5058989;28;20086;-76
2022/09/19 06:26:07;;;;;;;15.48;3.33;;;;;;;;;;5054526;28;20444;-77
2022/09/19 06:28:34;;;;;;;19.85;3.20;;;;;;;;;;5054292;28;20056;-77
2022/09/19 06:31:03;;;;;;;12.93;2.85;;;;;;;;;;5057430;28;20043;-76
2022/09/19 06:33:29;;;;;;;16.98;3.30;;;;;;;;;;5054361;28;20590;-75
2022/09/19 06:35:57;;;;;;;17.27;3.25;;;;;;;;;;5054384;28;20544;-76
2022/09/19 06:38:24;;;;;;;14.18;3.25;;;;;;;;;;5053664;28;20040;-75
2022/09/19 06:40:51;;;;;;;15.65;2.90;;;;;;;;;;5056479;28;20059;-75
2022/09/19 06:43:17;;;;;;;10.20;2.78;;;;;;;;;;5056020;28;20020;-75
2022/09/19 06:45:44;;;;;;;14.55;3.95;;;;;;;;;;5055206;28;20543;-75
2022/09/19 06:48:10;;;;;;;11.32;2.60;;;;;;;;;;5055729;28;20032;-75
2022/09/19 06:50:37;;;;;;;16.50;3.20;;;;;;;;;;5054044;28;20017;-75
2022/09/19 06:53:03;;;;;;;21.48;4.90;;;;;;;;;;5049524;28;20029;-75
2022/09/19 06:55:30;;;;;;;17.15;3.85;;;;;;;;;;5054231;28;20035;-74
2022/09/19 06:58:00;;;;;;;14.05;3.55;;;;;;;;;;5054009;28;20109;-75
2022/09/19 07:00:27;;;;;;;19.15;4.38;;;;;;;;;;5053989;28;20099;-75
2022/09/19 07:02:59;;;;;;;13.10;2.70;;;;;;;;;;5053676;28;20037;-74
2022/09/19 07:05:26;;;;;;;8.45;3.15;;;;;;;;;;5053765;28;20754;-74
2022/09/19 07:07:52;;;;;;;12.43;3.00;;;;;;;;;;5052559;28;20104;-76
2022/09/19 07:10:22;;;;;;;13.00;2.20;;;;;;;;;;5055270;28;20032;-75
2022/09/19 07:12:55;;;;;;;12.95;2.50;;;;;;;;;;5055746;28;20544;-75
2022/09/19 07:15:22;;;;;;;12.25;3.35;;;;;;;;;;5052769;28;20024;-75
2022/09/19 07:17:48;;;;;;;14.13;3.65;;;;;;;;;;5053825;28;20032;-75
2022/09/19 07:20:14;;;;;;;14.35;2.67;;;;;;;;;;5053667;28;20035;-74
2022/09/19 07:22:40;;;;;;;13.85;2.35;;;;;;;;;;5054500;28;20053;-76
2022/09/19 07:25:07;;;;;;;12.65;3.03;;;;;;;;;;5053280;28;20374;-74
2022/09/19 07:27:35;;;;;;;13.45;2.42;;;;;;;;;;5052649;28;20448;-73
2022/09/19 07:30:01;;;;;;;12.32;3.40;;;;;;;;;;5052081;28;20027;-74
2022/09/19 07:32:28;;;;;;;12.02;2.42;;;;;;;;;;5053919;28;20029;-74
2022/09/19 07:34:54;;;;;;;22.15;3.33;;;;;;;;;;5050953;28;20075;-74
2022/09/19 07:37:21;;;;;;;9.20;2.65;;;;;;;;;;5051976;28;20040;-74
2022/09/19 07:39:47;;;;;;;15.10;3.80;;;;;;;;;;5056974;28;20021;-74
2022/09/19 07:42:13;;;;;;;7.85;1.45;;;;;;;;;;5050145;28;20023;-76
2022/09/19 07:44:39;;;;;;;7.22;1.30;;;;;;;;;;5051182;28;20086;-75
2022/09/19 07:49:50;;;;;;;7.72;1.70;;;;;;;;;;5057028;28;20394;-75
2022/09/19 07:52:16;;;;;;;10.68;1.83;;;;;;;;;;5053682;28;20028;-75
2022/09/19 07:54:43;;;;;;;7.20;1.50;;;;;;;;;;5053265;28;20039;-77
2022/09/19 07:57:10;;;;;;;7.40;1.85;;;;;;;;;;5055272;28;20095;-75
2022/09/19 07:59:36;;;;;;;12.73;2.13;;;;;;;;;;5052506;28;20040;-76
2022/09/19 08:02:03;;;;;;;6.75;1.55;;;;;;;;;;5051393;28;20502;-75
2022/09/19 08:04:29;;;;;;;10.32;2.20;;;;;;;;;;5051942;28;20078;-74
2022/09/19 08:06:55;;;;;;;8.55;2.20;;;;;;;;;;5052451;28;20024;-73
2022/09/19 08:09:22;;;;;;;11.70;2.35;;;;;;;;;;5056091;28;20095;-75
2022/09/19 08:11:48;;;;;;;13.70;2.25;;;;;;;;;;5050239;28;20399;-75
2022/09/19 08:14:15;;;;;;;11.02;2.25;;;;;;;;;;5050480;28;20043;-75
2022/09/19 08:16:41;;;;;;;10.80;2.13;;;;;;;;;;5052081;28;20075;-75
2022/09/19 08:19:07;;;;;;;7.43;1.50;;;;;;;;;;5052049;28;20024;-75
2022/09/19 08:21:33;;;;;;;10.40;2.53;;;;;;;;;;5054141;28;20048;-76
2022/09/19 08:24:01;;;;;;;14.10;2.38;;;;;;;;;;5049155;28;20495;-75
2022/09/19 08:26:27;;;;;;;14.98;2.88;;;;;;;;;;5051330;28;20495;-75
2022/09/19 08:28:53;;;;;;;12.50;2.22;;;;;;;;;;5054997;28;20046;-75
2022/09/19 08:31:22;;;;;;;10.20;2.20;;;;;;;;;;5054436;28;20170;-76
2022/09/19 08:33:48;;;;;;;11.93;1.88;;;;;;;;;;5054879;28;20877;-75
2022/09/19 08:36:16;;;;;;;11.73;2.40;;;;;;;;;;5060085;28;20016;-75
2022/09/19 08:38:43;;;;;;;13.20;2.05;;;;;;;;;;5055382;28;20390;-75
2022/09/19 08:41:23;;;;;;;9.18;1.85;;;;;;;;;;5056231;28;20029;-76
2022/09/19 08:44:07;;;;;;;15.27;2.65;;;;;;;;;;5055869;28;20045;-76
2022/09/19 08:46:36;;;;;;;8.88;1.38;;;;;;;;;;5058140;28;20040;-74
2022/09/19 08:49:02;;;;;;;12.07;1.90;;;;;;;;;;5059014;28;20674;-74
2022/09/19 08:51:47;;;;;;;12.35;2.42;;;;;;;;;;5052884;28;20055;-77
2022/09/19 08:54:19;;;;;;;11.10;2.40;;;;;;;;;;5055534;28;20032;-76
2022/09/19 08:56:45;;;;;;;8.52;1.83;;;;;;;;;;5057482;28;20166;-76
2022/09/19 08:59:14;;;;;;;9.23;1.90;;;;;;;;;;5056680;28;20033;-76
2022/09/19 09:01:40;;;;;;;12.13;2.45;;;;;;;;;;5056093;28;20035;-75
2022/09/19 09:04:20;;;;;;;7.65;1.70;;;;;;;;;;5056689;28;21166;-75
2022/09/19 09:06:53;;;;;;;15.00;2.55;;;;;;;;;;5052656;28;20078;-75
2022/09/19 09:09:38;;;;;;;8.75;2.67;;;;;;;;;;5058277;28;20033;-76
2022/09/19 09:12:14;;;;;;;8.32;1.60;;;;;;;;;;5056274;28;20033;-76
2022/09/19 09:15:01;;;;;;;10.57;1.23;;;;;;;;;;5055952;28;20055;-76
2022/09/19 09:17:47;;;;;;;12.88;2.33;;;;;;;;;;5054991;28;20032;-77
2022/09/19 09:20:26;;;;;;;7.90;1.58;;;;;;;;;;5058824;28;20021;-75
2022/09/19 09:23:04;;;;;;;9.23;1.23;;;;;;;;;;5051228;28;20045;-75
2022/09/19 09:25:32;;;;;;;8.80;1.65;;;;;;;;;;5057367;28;20047;-74
2022/09/19 09:28:18;;;;;;;8.93;1.85;;;;;;;;;;5057797;28;20055;-76
2022/09/19 09:30:47;;;;;;;8.55;1.30;;;;;;;;;;5055155;28;20047;-74
2022/09/19 09:33:23;;;;;;;12.90;2.42;;;;;;;;;;5055724;28;20021;-74
2022/09/19 09:35:57;;;;;;;5.40;1.30;;;;;;;;;;5055268;28;20037;-74
2022/09/19 09:38:26;;;;;;;10.85;1.95;;;;;;;;;;5051409;28;20074;-74
2022/09/19 09:43:50;;;;;;;5.25;1.05;;;;;;;;;;5051902;28;20159;-74
2022/09/19 09:46:22;;;;;;;9.45;1.30;;;;;;;;;;5057238;28;20039;-74
2022/09/19 09:48:50;;;;;;;3.42;0.77;;;;;;;;;;5055840;28;20040;-74
2022/09/19 09:51:40;;;;;;;9.27;1.45;;;;;;;;;;5053649;28;20082;-74
2022/09/19 09:57:20;;;;;;;5.05;0.90;;;;;;;;;;5055326;28;20083;-75
2022/09/19 10:05:37;;;;;;;6.90;1.33;;;;;;;;;;5051921;28;20159;-74
2022/09/19 10:08:27;;;;;;;5.22;1.10;;;;;;;;;;5056135;28;20028;-75
2022/09/19 10:10:59;;;;;;;4.80;1.30;;;;;;;;;;5051294;28;20079;-74
2022/09/19 10:13:26;;;;;;;5.03;1.13;;;;;;;;;;5055607;28;20104;-74
2022/09/19 10:15:54;;;;;;;4.05;0.90;;;;;;;;;;5055470;28;20134;-74
2022/09/19 10:18:22;;;;;;;5.88;0.90;;;;;;;;;;5053949;28;20112;-74
2022/09/19 10:20:51;;;;;;;8.77;1.45;;;;;;;;;;5056049;28;20037;-74
2022/09/19 10:23:23;;;;;;;6.83;1.30;;;;;;;;;;5055914;28;20469;-75
2022/09/19 10:25:50;;;;;;;6.35;1.13;;;;;;;;;;5054580;28;20044;-72
2022/09/19 10:28:37;;;;;;;5.65;1.48;;;;;;;;;;5053472;28;20024;-74
2022/09/19 10:31:04;;;;;;;6.18;1.08;;;;;;;;;;5051880;28;20056;-74
2022/09/19 10:33:39;;;;;;;6.15;1.20;;;;;;;;;;5056027;28;20475;-74
2022/09/19 10:36:14;;;;;;;3.80;0.70;;;;;;;;;;5056090;28;20029;-74
2022/09/19 10:38:47;;;;;;;5.60;0.85;;;;;;;;;;5056105;28;20021;-74
2022/09/19 10:41:13;;;;;;;1.90;0.30;;;;;;;;;;5057538;28;20033;-74
2022/09/19 10:43:45;;;;;;;2.40;0.70;;;;;;;;;;5054846;28;20055;-73
2022/09/19 10:46:16;;;;;;;3.33;0.82;;;;;;;;;;5051066;28;20060;-74
2022/09/19 10:48:50;;;;;;;4.22;0.60;;;;;;;;;;5053390;28;20020;-73
2022/09/19 10:51:16;;;;;;;5.40;0.98;;;;;;;;;;5050798;28;20031;-74
2022/09/19 10:53:45;;;;;;;3.08;0.80;;;;;;;;;;5056687;28;20081;-74
2022/09/19 10:56:22;;;;;;;3.97;0.90;;;;;;;;;;5050126;28;20090;-73
2022/09/19 10:58:52;;;;;;;5.20;1.08;;;;;;;;;;5057409;28;20028;-74
2022/09/19 11:01:22;;;;;;;3.58;0.80;;;;;;;;;;5055903;28;20407;-72
2022/09/19 11:04:02;;;;;;;9.90;1.60;;;;;;;;;;5053846;28;21016;-72
2022/09/19 11:06:28;;;;;;;;;;;;;;;;;;5055396;28;20029;-73
2022/09/19 11:08:56;;;;;;;4.45;0.80;;;;;;;;;;5053222;28;19920;-73
2022/09/19 11:11:25;;;;;;;6.43;1.00;;;;;;;;;;5051672;28;20393;-72
2022/09/19 11:14:10;;;;;;;5.93;1.55;;;;;;;;;;5054639;28;20028;-73
2022/09/19 11:16:41;;;;;;;8.68;1.30;;;;;;;;;;5055833;28;20020;-72
2022/09/19 11:19:27;;;;;;;1.75;0.70;;;;;;;;;;5055557;28;20028;-73
2022/09/19 11:22:02;;;;;;;3.42;0.60;;;;;;;;;;5052760;28;20154;-72
2022/09/19 11:24:49;;;;;;;3.83;0.57;;;;;;;;;;5056106;28;20016;-73
2022/09/19 11:27:33;;;;;;;4.32;0.80;;;;;;;;;;5051702;28;20043;-73
2022/09/19 11:30:00;;;;;;;4.05;0.68;;;;;;;;;;5050243;28;20562;-73
2022/09/19 11:32:26;;;;;;;4.97;0.80;;;;;;;;;;5054116;28;20063;-73
2022/09/19 11:35:19;;;;;;;2.75;0.70;;;;;;;;;;5049097;28;20032;-73
2022/09/19 11:37:57;;;;;;;5.05;0.80;;;;;;;;;;5058600;28;20045;-73
2022/09/19 11:40:23;;;;;;;3.35;0.70;;;;;;;;;;5054715;28;20708;-73
2022/09/19 11:42:49;;;;;;;3.53;0.70;;;;;;;;;;5052502;28;20028;-73
2022/09/19 11:45:15;;;;;;;3.75;0.95;;;;;;;;;;5055839;28;20510;-74
2022/09/19 11:47:50;;;;;;;3.90;0.98;;;;;;;;;;5050718;28;20028;-73
2022/09/19 11:50:30;;;;;;;3.65;0.90;;;;;;;;;;5050703;28;20029;-72
2022/09/19 11:53:08;;;;;;;3.72;0.70;;;;;;;;;;5051759;28;20032;-73
2022/09/19 11:55:43;;;;;;;3.95;0.60;;;;;;;;;;5052479;28;20024;-74
2022/09/19 11:58:21;;;;;;;2.80;0.60;;;;;;;;;;5051963;28;21126;-73
2022/09/19 12:01:16;;;;;;;4.57;1.00;;;;;;;;;;5055120;28;20078;-74
2022/09/19 12:04:14;;;;;;;3.13;0.55;;;;;;;;;;5052351;28;20037;-74
2022/09/19 12:06:44;;;;;;;3.08;0.70;;;;;;;;;;5052555;28;20141;-73
2022/09/19 12:09:10;;;;;;;2.90;0.90;;;;;;;;;;5051083;28;20039;-73
2022/09/19 12:11:37;;;;;;;5.72;0.93;;;;;;;;;;5052778;28;20980;-74
2022/09/19 12:14:05;;;;;;;3.17;0.77;;;;;;;;;;5053995;28;20029;-75
2022/09/19 12:16:50;;;;;;;4.68;0.60;;;;;;;;;;5055265;28;20143;-75
2022/09/19 12:19:33;;;;;;;6.50;0.70;;;;;;;;;;5052565;28;20027;-75
2022/09/19 12:22:03;;;;;;;2.25;0.57;;;;;;;;;;5048310;28;20103;-77
2022/09/19 12:24:52;;;;;;;1.80;0.50;;;;;;;;;;5052487;28;20036;-75
2022/09/19 12:27:24;;;;;;;4.43;1.00;;;;;;;;;;5049177;28;20426;-77
2022/09/19 12:30:10;;;;;;;7.38;1.00;;;;;;;;;;5052894;28;20029;-75
2022/09/19 12:32:40;;;;;;;5.93;2.55;;;;;;;;;;5047315;28;20024;-76
2022/09/19 12:35:13;;;;;;;4.78;0.95;;;;;;;;;;5051310;28;20047;-76
2022/09/19 12:38:02;;;;;;;6.32;1.63;;;;;;;;;;5053905;28;20035;-76
2022/09/19 12:40:42;;;;;;;4.65;1.25;;;;;;;;;;5050265;28;20049;-76
2022/09/19 12:43:08;;;;;;;7.40;1.40;;;;;;;;;;5053646;28;20025;-77
2022/09/19 12:45:40;;;;;;;3.63;0.70;;;;;;;;;;5051282;28;20036;-78
2022/09/19 12:48:20;;;;;;;5.30;1.10;;;;;;;;;;5049402;28;20017;-78
2022/09/19 12:50:51;;;;;;;5.18;1.15;;;;;;;;;;5053419;28;20028;-77
2022/09/19 12:53:31;;;;;;;4.00;0.80;;;;;;;;;;5053887;28;20039;-76
2022/09/19 12:56:01;;;;;;;3.10;0.65;;;;;;;;;;5053645;28;20571;-78
2022/09/19 12:58:31;;;;;;;6.35;1.00;;;;;;;;;;5055334;28;20027;-77
2022/09/19 13:00:58;;;;;;;;;;;;;;;;;;5053025;28;20059;-77
2022/09/19 13:03:27;;;;;;;3.47;0.88;;;;;;;;;;5048429;28;20065;-77
2022/09/19 13:05:56;;;;;;;3.65;0.82;;;;;;;;;;5051766;28;20035;-77
2022/09/19 13:08:30;;;;;;;2.63;0.65;;;;;;;;;;5051941;28;20394;-76
2022/09/19 13:11:11;;;;;;;3.28;0.70;;;;;;;;;;5054955;28;20037;-76
2022/09/19 13:13:47;;;;;;;4.22;1.02;;;;;;;;;;5059002;28;20419;-76
2022/09/19 13:16:15;;;;;;;4.18;0.98;;;;;;;;;;5055037;28;20103;-77
2022/09/19 13:23:30;;;;;;;4.25;0.73;;;;;;;;;;5055040;28;20571;-77
2022/09/19 13:24:42;;;;;;;3.80;0.65;;;;;;;;;;5054647;28;20045;-75
2022/09/19 13:27:09;;;;;;;5.35;0.90;;;;;;;;;;5058409;28;20029;-77
2022/09/19 13:29:35;;;;;;;5.05;1.30;;;;;;;;;;5054735;28;20023;-77
2022/09/19 13:32:24;;;;;;;5.32;1.55;;;;;;;;;;5054140;28;20364;-76
2022/09/19 13:35:00;;;;;;;8.30;1.52;;;;;;;;;;5055066;28;20048;-74
2022/09/19 13:37:26;;;;;;;5.22;1.13;;;;;;;;;;5054434;28;20033;-76
2022/09/19 13:40:04;;;;;;;29.00;2.30;;;;;;;;;;5053874;28;20069;-76
2022/09/19 13:42:35;;;;;;;5.55;1.02;;;;;;;;;;5054105;28;20090;-75
2022/09/19 13:45:08;;;;;;;7.28;1.13;;;;;;;;;;5054282;28;20080;-76
2022/09/19 13:47:39;;;;;;;7.85;1.63;;;;;;;;;;5054761;28;20135;-75
2022/09/19 13:50:27;;;;;;;5.10;1.60;;;;;;;;;;5057934;28;20033;-75
2022/09/19 13:53:01;;;;;;;4.60;0.70;;;;;;;;;;5055984;28;20024;-77
2022/09/19 13:55:30;;;;;;;4.93;1.10;;;;;;;;;;5057045;28;20090;-75
2022/09/19 13:58:16;;;;;;;7.15;0.75;;;;;;;;;;5054307;28;20056;-76
2022/09/19 14:00:44;;;;;;;4.63;0.85;;;;;;;;;;5055788;28;20472;-78
2022/09/19 14:03:26;;;;;;;6.32;0.88;;;;;;;;;;5053762;28;20036;-78
2022/09/19 14:06:14;;;;;;;5.35;0.95;;;;;;;;;;5055388;28;20032;-78
2022/09/19 14:08:40;;;;;;;4.57;1.00;;;;;;;;;;5057040;28;20077;-78
2022/09/19 14:11:06;;;;;;;6.07;0.88;;;;;;;;;;5056138;28;20046;-78
2022/09/19 14:13:40;;;;;;;6.22;1.02;;;;;;;;;;5054259;28;20063;-77
2022/09/19 14:16:11;;;;;;;5.50;1.20;;;;;;;;;;5054837;28;20028;-78
2022/09/19 14:18:36;;;;;;;3.75;0.73;;;;;;;;;;5053805;28;20166;-77
2022/09/19 14:21:34;;;;;;;5.07;1.10;;;;;;;;;;5051879;28;20151;-79
2022/09/19 14:24:14;;;;;;;3.78;0.70;;;;;;;;;;5054596;28;20111;-77
2022/09/19 14:26:53;;;;;;;4.28;1.08;;;;;;;;;;5051705;28;20028;-77
2022/09/19 14:29:23;;;;;;;5.38;1.15;;;;;;;;;;5051399;28;20745;-78
2022/09/19 14:32:14;;;;;;;13.00;2.42;;;;;;;;;;5053126;28;20036;-77
2022/09/19 14:34:40;;;;;;;4.65;0.60;;;;;;;;;;5053463;28;20112;-78
2022/09/19 14:37:26;;;;;;;7.15;0.82;;;;;;;;;;5054273;28;20029;-77
2022/09/19 14:40:00;;;;;;;6.60;0.80;;;;;;;;;;5051764;28;20054;-76
2022/09/19 14:42:32;;;;;;;4.25;1.25;;;;;;;;;;5054266;28;20040;-78
2022/09/19 14:45:24;;;;;;;3.88;1.05;;;;;;;;;;5052295;28;20491;-77
2022/09/19 14:47:54;;;;;;;3.30;0.68;;;;;;;;;;5050829;28;20138;-77
2022/09/19 14:50:22;;;;;;;2.90;0.93;;;;;;;;;;5054548;28;20080;-78
2022/09/19 14:52:57;;;;;;;4.93;0.80;;;;;;;;;;5051084;28;20048;-78
2022/09/19 14:55:24;;;;;;;5.88;1.13;;;;;;;;;;5056723;28;20396;-78
2022/09/19 14:57:52;;;;;;;4.65;0.85;;;;;;;;;;5054445;28;20036;-77
2022/09/19 15:00:27;;;;;;;5.85;0.93;;;;;;;;;;5053174;28;20028;-78
2022/09/19 15:02:54;;;;;;;5.53;0.80;;;;;;;;;;5055676;28;20067;-78
2022/09/19 15:05:23;;;;;;;6.30;0.85;;;;;;;;;;5056344;28;20032;-78
2022/09/19 15:07:49;;;;;;;5.22;1.67;;;;;;;;;;5054566;28;20033;-78
2022/09/19 15:10:21;;;;;;;4.00;0.70;;;;;;;;;;5052233;28;20087;-77
2022/09/19 15:12:49;;;;;;;5.50;1.17;;;;;;;;;;5054210;28;20565;-77
2022/09/19 15:15:19;;;;;;;5.45;1.35;;;;;;;;;;5053611;28;20036;-79
2022/09/19 15:17:46;;;;;;;7.78;1.33;;;;;;;;;;5054867;28;20033;-79
2022/09/19 15:20:16;;;;;;;6.85;0.95;;;;;;;;;;5053391;28;20078;-78
2022/09/19 15:22:44;;;;;;;5.32;1.13;;;;;;;;;;5053344;28;20099;-78